Buoy 41938

sailwx.info

Track history (hours):
 
Tides and Currents Weather Stations Pressure Air Temp Water Temp Dewpoint Dewpoint Depression Visibility Wind Speed Wind Dir Waves Ship Positions

Drifting buoy 41938

Last reported at 2014-Sep-18 15:00 UTC. Time now 2014-Sep-18 17:43 UTC.
Position N 35°04' W 073°59'.

Barometer 1014.0 mb
Water temperature 27.3 ° C

Date/timePositionNaut miles runAvg speedWind from/ knotsBaromVisibWave heightAir tempDewpointWater temp
2014-Sep-18 15:00N 35°04' W 073°59'1 0.7 1014.0 27.3
2014-Sep-18 14:00N 35°04' W 073°59'2 0.5 1013.7 27.3
2014-Sep-18 10:00N 35°02' W 073°58'0 0.4 1012.0 27.3
2014-Sep-18 09:00N 35°02' W 073°58'1 0.6 1011.5 27.3
2014-Sep-18 08:00N 35°02' W 073°58'2 1.1 1011.6 27.2
2014-Sep-18 06:00N 34°60' W 073°56'1 0.3 1012.1 27.4
2014-Sep-18 02:00N 34°60' W 073°58'1 0.6 1012.5 27.4
2014-Sep-18 01:00N 34°59' W 073°58'0 0.3 1012.4 27.4
2014-Sep-18 00:00N 34°59' W 073°57'0 0.0 1012.0 27.4
2014-Sep-17 22:00N 34°59' W 073°57'1 1.3 1011.1 27.4
2014-Sep-17 21:00N 34°58' W 073°57'1 0.9 1011.4 27.5
2014-Sep-17 20:00N 34°57' W 073°57'2 0.8 1011.3 27.5
2014-Sep-17 18:00N 34°56' W 073°55'1 0.2 1012.1 27.4
2014-Sep-17 15:00N 34°55' W 073°56'1 0.5 1014.0 27.4
2014-Sep-17 14:00N 34°55' W 073°56'3 0.8 1013.9 27.3
2014-Sep-17 10:00N 34°53' W 073°53'0 0.0 1013.4 27.2
2014-Sep-17 09:00N 34°53' W 073°53'1 0.7 1013.6 27.4
2014-Sep-17 08:00N 34°53' W 073°52'2 0.8 1012.9 27.5
2014-Sep-17 06:00N 34°53' W 073°51'0 0.0 1014.0 27.5
2014-Sep-17 03:00N 34°53' W 073°51'1 0.8 1014.5 27.5
2014-Sep-17 02:00N 34°52' W 073°52'1 0.7 1014.6 27.5
2014-Sep-17 01:00N 34°52' W 073°51'0 0.0 1014.8 27.5
2014-Sep-17 00:00N 34°52' W 073°51'0 0.2 1014.6 27.5
2014-Sep-16 23:00N 34°52' W 073°51'1 1.0 1014.5 27.5
2014-Sep-16 22:00N 34°51' W 073°50'1 0.9 1014.5 27.5
2014-Sep-16 21:00N 34°51' W 073°51'0 0.5 1014.2 27.5
2014-Sep-16 20:00N 34°50' W 073°50'2 1.6 1014.5 27.6
2014-Sep-16 19:00N 34°49' W 073°51'1 0.7 1014.6 27.5
2014-Sep-16 18:00N 34°49' W 073°52'0 0.0 1015.1 27.5
2014-Sep-16 17:00N 34°49' W 073°52'4 4.1 1015.7 27.5
2014-Sep-16 16:00N 34°48' W 073°48'0 0.0 1016.3 27.5
2014-Sep-16 15:00N 34°48' W 073°48'1 0.5 1016.8 27.6
2014-Sep-16 14:00N 34°48' W 073°48'3 3.1 1017.3 27.5
2014-Sep-16 13:00N 34°47' W 073°45'0 0.0 1016.9 27.6
2014-Sep-16 11:00N 34°47' W 073°45'1 1.1 1017.1 27.6
2014-Sep-16 10:00N 34°46' W 073°44'1 1.2 1017.2 27.6
2014-Sep-16 09:00N 34°48' W 073°43'0 0.0 1016.7 27.6
2014-Sep-16 07:00N 34°48' W 073°43'1 0.8 1017.4 27.6
2014-Sep-16 06:00N 34°47' W 073°43'1 0.2 1018.0 27.6
2014-Sep-16 02:00N 34°47' W 073°43'1 0.8 1019.3 27.6
2014-Sep-16 01:00N 34°46' W 073°43'0 0.0 1019.1 27.6
2014-Sep-16 00:00N 34°46' W 073°43'2 0.9 1019.1 27.6
2014-Sep-15 22:00N 34°45' W 073°41'3 1.3 1019.0 27.7
2014-Sep-15 20:00N 34°43' W 073°39'0 0.0 1019.2 27.7
2014-Sep-15 19:00N 34°43' W 073°39'0 0.0 1019.1 27.7
2014-Sep-15 18:00N 34°43' W 073°39'3 1.3 1020.0 27.7
2014-Sep-15 16:00N 34°41' W 073°37'0 0.0 1020.4 27.7
2014-Sep-15 15:00N 34°41' W 073°37'1 1.3 1021.0 27.7
2014-Sep-15 14:00N 34°41' W 073°35'2 2.1 1020.7 27.7
2014-Sep-15 13:00N 34°40' W 073°33'1 0.5 1020.4 27.7
2014-Sep-15 11:00N 34°41' W 073°33'1 0.6 1019.9 27.6
2014-Sep-15 10:00N 34°41' W 073°32'1 0.8 1019.7 27.5
2014-Sep-15 09:00N 34°42' W 073°32'2 0.9 1018.8 27.5
2014-Sep-15 07:00N 34°40' W 073°31'2 1.8 1019.1 27.6
2014-Sep-15 06:00N 34°42' W 073°32'2 1.8 1019.7 27.5
2014-Sep-15 05:00N 34°40' W 073°31'0 0.0 1019.6 27.8
2014-Sep-15 02:00N 34°40' W 073°31'0 0.1 1020.2 27.8
2014-Sep-15 01:00N 34°40' W 073°31'1 1.2 1020.3 27.8
2014-Sep-15 00:00N 34°41' W 073°32'4 1.4 1020.1 27.8
2014-Sep-14 21:00N 34°38' W 073°28'1 1.2 1020.0 27.8
2014-Sep-14 20:00N 34°37' W 073°28'0 0.0 1019.8 27.9
2014-Sep-14 19:00N 34°37' W 073°28'2 1.7 1020.1 27.9
2014-Sep-14 18:00N 34°36' W 073°26'0 0.0 1020.4 27.9
2014-Sep-14 17:00N 34°36' W 073°26'1 0.5 1020.8 27.8
2014-Sep-14 15:00N 34°36' W 073°25'3 2.5 1021.1 27.8
2014-Sep-14 14:00N 34°37' W 073°21'2 1.5 1021.0 27.8
2014-Sep-14 13:00N 34°37' W 073°23'1 0.5 1020.9 27.8
2014-Sep-14 10:00N 34°37' W 073°22'0 0.5 1019.6 27.8
2014-Sep-14 09:00N 34°37' W 073°21'1 0.3 1019.0 27.8
2014-Sep-14 07:00N 34°36' W 073°21'0 0.1 1018.5 27.8
2014-Sep-14 05:00N 34°37' W 073°21'2 1.6 1019.3 27.9
2014-Sep-14 04:00N 34°35' W 073°20'0 0.2 1019.4 27.9
2014-Sep-14 02:00N 34°35' W 073°20'1 0.7 1019.6 27.9
2014-Sep-14 01:00N 34°34' W 073°20'1 0.6 1019.3 27.9
2014-Sep-13 23:00N 34°34' W 073°18'1 0.4 1018.4 28.0
2014-Sep-13 21:00N 34°33' W 073°18'1 1.1 1018.3 28.0
2014-Sep-13 20:00N 34°33' W 073°17'0 0.3 1018.2 28.0
2014-Sep-13 19:00N 34°33' W 073°16'1 1.1 1018.3 28.0
2014-Sep-13 18:00N 34°32' W 073°15'0 0.0 1018.8 27.9
2014-Sep-13 17:00N 34°32' W 073°15'1 0.6 1019.2 27.9
2014-Sep-13 15:00N 34°32' W 073°14'2 1.9 1019.3 27.9
2014-Sep-13 14:00N 34°31' W 073°12'0 0.1 1019.0 27.8
2014-Sep-13 09:00N 34°31' W 073°12'1 0.6 1017.4 27.8
2014-Sep-13 07:00N 34°30' W 073°11'2 1.2 1017.5 27.9
2014-Sep-13 05:00N 34°28' W 073°10'0 0.0 1017.7 27.9
2014-Sep-13 04:00N 34°28' W 073°10'1 0.3 1017.9 27.9
2014-Sep-13 02:00N 34°28' W 073°10'4 3.7 1018.0 27.9
2014-Sep-13 01:00N 34°25' W 073°07'0 0.0 1017.6 28.0
2014-Sep-13 00:00N 34°25' W 073°07'1 0.3 1016.9 28.1
2014-Sep-12 22:00N 34°25' W 073°06'0 0.0 1016.8 28.2
2014-Sep-12 21:00N 34°25' W 073°06'3 1.5 1016.6 28.3
2014-Sep-12 19:00N 34°24' W 073°03'0 0.0 1017.0 28.3
2014-Sep-12 18:00N 34°24' W 073°03'0 0.0 1017.7 28.2
2014-Sep-12 17:00N 34°24' W 073°03'1 0.6 1017.9 28.2
2014-Sep-12 15:00N 34°23' W 073°01'0 0.5 1017.7 28.1
2014-Sep-12 14:00N 34°23' W 073°01'1 0.4 1017.8 27.9
2014-Sep-12 11:00N 34°22' W 073°00'0 0.2 1017.0 27.9
2014-Sep-12 10:00N 34°22' W 073°00'1 1.4 1016.6 27.9
2014-Sep-12 09:00N 34°21' W 073°00'0 0.0 1016.3 27.9
2014-Sep-12 08:00N 34°21' W 073°00'2 1.6 1016.3 27.9
2014-Sep-12 07:00N 34°19' W 072°59'5 4.9 1016.3 27.9
2014-Sep-12 06:00N 34°15' W 072°56'5 4.9 1016.4 27.9
2014-Sep-12 05:00N 34°19' W 072°59'5 2.5 1016.7 27.9
2014-Sep-12 03:00N 34°15' W 072°56'0 0.0 1017.0 28.0
2014-Sep-12 02:00N 34°15' W 072°56'2 2.1 1016.8 28.1
2014-Sep-12 01:00N 34°13' W 072°55'0 0.4 1016.5 28.1
2014-Sep-12 00:00N 34°14' W 072°55'4 1.8 1016.1 28.2
2014-Sep-11 22:00N 34°12' W 072°51'1 0.5 1015.9 28.4
2014-Sep-11 21:00N 34°12' W 072°50'1 0.6 1015.8 28.5
2014-Sep-11 19:00N 34°11' W 072°49'1 0.4 1016.3 28.5
2014-Sep-11 17:00N 34°11' W 072°48'2 0.8 1017.0 28.2
2014-Sep-11 15:00N 34°09' W 072°47'3 0.7 1017.8 28.0
2014-Sep-11 11:00N 34°07' W 072°46'2 1.7 1017.3 27.8
2014-Sep-11 10:00N 34°05' W 072°45'1 1.3 1017.0 27.8
2014-Sep-11 09:00N 34°04' W 072°45'1 0.8 1016.7 27.8
2014-Sep-11 08:00N 34°03' W 072°44'2 1.1 1016.5 27.8
2014-Sep-11 06:00N 34°01' W 072°43'5 1.3 1016.6 27.8
2014-Sep-11 02:00N 33°57' W 072°40'1 1.5 1017.1 27.9
2014-Sep-11 01:00N 33°56' W 072°38'2 1.6 1017.1 27.9
2014-Sep-11 00:00N 33°55' W 072°37'0 0.0 1016.6 27.9
2014-Sep-10 23:00N 33°55' W 072°37'1 1.3 1016.2 27.9
2014-Sep-10 22:00N 33°54' W 072°36'0 0.5 1016.2 27.9
2014-Sep-10 21:00N 33°54' W 072°36'1 1.1 1016.1 27.9
2014-Sep-10 20:00N 33°53' W 072°35'1 0.7 1016.2 28.0
2014-Sep-10 19:00N 33°53' W 072°34'1 0.5 1016.5 28.0
2014-Sep-10 17:00N 33°52' W 072°33'2 0.8 1017.2 27.9
2014-Sep-10 15:00N 33°51' W 072°34'0 0.0 1017.7 27.9
2014-Sep-10 14:00N 33°51' W 072°34'6 1.4 1017.1 27.9
2014-Sep-10 10:00N 33°45' W 072°31'2 1.5 1016.0 29.3
2014-Sep-10 09:00N 33°44' W 072°31'3 2.6 1016.0 28.0
2014-Sep-10 08:00N 33°42' W 072°29'4 1.8 1015.7 28.0
2014-Sep-10 06:00N 33°39' W 072°26'0 0.0 1016.5 28.0
2014-Sep-10 03:00N 33°39' W 072°26'1 0.6 1017.7 28.1
2014-Sep-10 02:00N 33°39' W 072°26'0 0.0 1017.9 28.1
2014-Sep-10 01:00N 33°39' W 072°26'1 0.5 1017.6 28.1
2014-Sep-10 00:00N 33°39' W 072°26'3 0.9 1017.2 28.2
2014-Sep-09 21:00N 33°36' W 072°26'2 2.4 1018.2 28.3
2014-Sep-09 20:00N 33°33' W 072°27'0 0.0 1018.5 28.3
2014-Sep-09 19:00N 33°33' W 072°27'0 0.0 1018.8 28.3
2014-Sep-09 18:00N 33°33' W 072°27'4 1.2 1019.3 28.3
2014-Sep-09 15:00N 33°30' W 072°25'3 3.3 1020.1 28.1
2014-Sep-09 14:00N 33°27' W 072°24'0 0.0 1020.3 28.0
2014-Sep-09 11:00N 33°27' W 072°24'2 2.1 1019.9 28.0
2014-Sep-09 10:00N 33°25' W 072°23'0 0.5 1019.6 28.0
2014-Sep-09 09:00N 33°25' W 072°23'2 1.5 1019.5 28.1
2014-Sep-09 08:00N 33°24' W 072°22'2 1.0 1019.3 28.1
2014-Sep-09 06:00N 33°22' W 072°20'1 0.2 1020.1 28.1
2014-Sep-09 02:00N 33°22' W 072°21'1 0.7 1020.2 28.2
2014-Sep-09 01:00N 33°22' W 072°21'1 1.0 1020.1 28.3
2014-Sep-09 00:00N 33°22' W 072°21'2 1.1 1019.6 28.3
2014-Sep-08 22:00N 33°20' W 072°21'1 0.7 1019.7 28.4
2014-Sep-08 20:00N 33°19' W 072°22'2 1.1 1020.0 28.4
2014-Sep-08 18:00N 33°17' W 072°22'   1020.9 28.4
Track history (hours):
 
Tides and Currents Weather Stations Pressure Air Temp Water Temp Dewpoint Dewpoint Depression Visibility Wind Speed Wind Dir Waves Ship Positions

Drifting buoy 41938

Last reported at 2014-Sep-18 15:00 UTC. Time now 2014-Sep-18 17:43 UTC.
Position N 35°04' W 073°59'.

Barometer 1014.0 mb
Water temperature 27.3 ° C

Date/timePositionNaut miles runAvg speedWind from/ knotsBaromVisibWave heightAir tempDewpointWater temp
2014-Sep-18 15:00N 35°04' W 073°59'1 0.7 1014.0 27.3
2014-Sep-18 14:00N 35°04' W 073°59'2 0.5 1013.7 27.3
2014-Sep-18 10:00N 35°02' W 073°58'0 0.4 1012.0 27.3
2014-Sep-18 09:00N 35°02' W 073°58'1 0.6 1011.5 27.3
2014-Sep-18 08:00N 35°02' W 073°58'2 1.1 1011.6 27.2
2014-Sep-18 06:00N 34°60' W 073°56'1 0.3 1012.1 27.4
2014-Sep-18 02:00N 34°60' W 073°58'1 0.6 1012.5 27.4
2014-Sep-18 01:00N 34°59' W 073°58'0 0.3 1012.4 27.4
2014-Sep-18 00:00N 34°59' W 073°57'0 0.0 1012.0 27.4
2014-Sep-17 22:00N 34°59' W 073°57'1 1.3 1011.1 27.4
2014-Sep-17 21:00N 34°58' W 073°57'1 0.9 1011.4 27.5
2014-Sep-17 20:00N 34°57' W 073°57'2 0.8 1011.3 27.5
2014-Sep-17 18:00N 34°56' W 073°55'1 0.2 1012.1 27.4
2014-Sep-17 15:00N 34°55' W 073°56'1 0.5 1014.0 27.4
2014-Sep-17 14:00N 34°55' W 073°56'3 0.8 1013.9 27.3
2014-Sep-17 10:00N 34°53' W 073°53'0 0.0 1013.4 27.2
2014-Sep-17 09:00N 34°53' W 073°53'1 0.7 1013.6 27.4
2014-Sep-17 08:00N 34°53' W 073°52'2 0.8 1012.9 27.5
2014-Sep-17 06:00N 34°53' W 073°51'0 0.0 1014.0 27.5
2014-Sep-17 03:00N 34°53' W 073°51'1 0.8 1014.5 27.5
2014-Sep-17 02:00N 34°52' W 073°52'1 0.7 1014.6 27.5
2014-Sep-17 01:00N 34°52' W 073°51'0 0.0 1014.8 27.5
2014-Sep-17 00:00N 34°52' W 073°51'0 0.2 1014.6 27.5
2014-Sep-16 23:00N 34°52' W 073°51'1 1.0 1014.5 27.5
2014-Sep-16 22:00N 34°51' W 073°50'1 0.9 1014.5 27.5
2014-Sep-16 21:00N 34°51' W 073°51'0 0.5 1014.2 27.5
2014-Sep-16 20:00N 34°50' W 073°50'2 1.6 1014.5 27.6
2014-Sep-16 19:00N 34°49' W 073°51'1 0.7 1014.6 27.5
2014-Sep-16 18:00N 34°49' W 073°52'0 0.0 1015.1 27.5
2014-Sep-16 17:00N 34°49' W 073°52'4 4.1 1015.7 27.5
2014-Sep-16 16:00N 34°48' W 073°48'0 0.0 1016.3 27.5
2014-Sep-16 15:00N 34°48' W 073°48'1 0.5 1016.8 27.6
2014-Sep-16 14:00N 34°48' W 073°48'3 3.1 1017.3 27.5
2014-Sep-16 13:00N 34°47' W 073°45'0 0.0 1016.9 27.6
2014-Sep-16 11:00N 34°47' W 073°45'1 1.1 1017.1 27.6
2014-Sep-16 10:00N 34°46' W 073°44'1 1.2 1017.2 27.6
2014-Sep-16 09:00N 34°48' W 073°43'0 0.0 1016.7 27.6
2014-Sep-16 07:00N 34°48' W 073°43'1 0.8 1017.4 27.6
2014-Sep-16 06:00N 34°47' W 073°43'1 0.2 1018.0 27.6
2014-Sep-16 02:00N 34°47' W 073°43'1 0.8 1019.3 27.6
2014-Sep-16 01:00N 34°46' W 073°43'0 0.0 1019.1 27.6
2014-Sep-16 00:00N 34°46' W 073°43'2 0.9 1019.1 27.6
2014-Sep-15 22:00N 34°45' W 073°41'3 1.3 1019.0 27.7
2014-Sep-15 20:00N 34°43' W 073°39'0 0.0 1019.2 27.7
2014-Sep-15 19:00N 34°43' W 073°39'0 0.0 1019.1 27.7
2014-Sep-15 18:00N 34°43' W 073°39'3 1.3 1020.0 27.7
2014-Sep-15 16:00N 34°41' W 073°37'0 0.0 1020.4 27.7
2014-Sep-15 15:00N 34°41' W 073°37'1 1.3 1021.0 27.7
2014-Sep-15 14:00N 34°41' W 073°35'2 2.1 1020.7 27.7
2014-Sep-15 13:00N 34°40' W 073°33'1 0.5 1020.4 27.7
2014-Sep-15 11:00N 34°41' W 073°33'1 0.6 1019.9 27.6
2014-Sep-15 10:00N 34°41' W 073°32'1 0.8 1019.7 27.5
2014-Sep-15 09:00N 34°42' W 073°32'2 0.9 1018.8 27.5
2014-Sep-15 07:00N 34°40' W 073°31'2 1.8 1019.1 27.6
2014-Sep-15 06:00N 34°42' W 073°32'2 1.8 1019.7 27.5
2014-Sep-15 05:00N 34°40' W 073°31'0 0.0 1019.6 27.8
2014-Sep-15 02:00N 34°40' W 073°31'0 0.1 1020.2 27.8
2014-Sep-15 01:00N 34°40' W 073°31'1 1.2 1020.3 27.8
2014-Sep-15 00:00N 34°41' W 073°32'4 1.4 1020.1 27.8
2014-Sep-14 21:00N 34°38' W 073°28'1 1.2 1020.0 27.8
2014-Sep-14 20:00N 34°37' W 073°28'0 0.0 1019.8 27.9
2014-Sep-14 19:00N 34°37' W 073°28'2 1.7 1020.1 27.9
2014-Sep-14 18:00N 34°36' W 073°26'0 0.0 1020.4 27.9
2014-Sep-14 17:00N 34°36' W 073°26'1 0.5 1020.8 27.8
2014-Sep-14 15:00N 34°36' W 073°25'3 2.5 1021.1 27.8
2014-Sep-14 14:00N 34°37' W 073°21'2 1.5 1021.0 27.8
2014-Sep-14 13:00N 34°37' W 073°23'1 0.5 1020.9 27.8
2014-Sep-14 10:00N 34°37' W 073°22'0 0.5 1019.6 27.8
2014-Sep-14 09:00N 34°37' W 073°21'1 0.3 1019.0 27.8
2014-Sep-14 07:00N 34°36' W 073°21'0 0.1 1018.5 27.8
2014-Sep-14 05:00N 34°37' W 073°21'2 1.6 1019.3 27.9
2014-Sep-14 04:00N 34°35' W 073°20'0 0.2 1019.4 27.9
2014-Sep-14 02:00N 34°35' W 073°20'1 0.7 1019.6 27.9
2014-Sep-14 01:00N 34°34' W 073°20'1 0.6 1019.3 27.9
2014-Sep-13 23:00N 34°34' W 073°18'1 0.4 1018.4 28.0
2014-Sep-13 21:00N 34°33' W 073°18'1 1.1 1018.3 28.0
2014-Sep-13 20:00N 34°33' W 073°17'0 0.3 1018.2 28.0
2014-Sep-13 19:00N 34°33' W 073°16'1 1.1 1018.3 28.0
2014-Sep-13 18:00N 34°32' W 073°15'0 0.0 1018.8 27.9
2014-Sep-13 17:00N 34°32' W 073°15'1 0.6 1019.2 27.9
2014-Sep-13 15:00N 34°32' W 073°14'2 1.9 1019.3 27.9
2014-Sep-13 14:00N 34°31' W 073°12'0 0.1 1019.0 27.8
2014-Sep-13 09:00N 34°31' W 073°12'1 0.6 1017.4 27.8
2014-Sep-13 07:00N 34°30' W 073°11'2 1.2 1017.5 27.9
2014-Sep-13 05:00N 34°28' W 073°10'0 0.0 1017.7 27.9
2014-Sep-13 04:00N 34°28' W 073°10'1 0.3 1017.9 27.9
2014-Sep-13 02:00N 34°28' W 073°10'4 3.7 1018.0 27.9
2014-Sep-13 01:00N 34°25' W 073°07'0 0.0 1017.6 28.0
2014-Sep-13 00:00N 34°25' W 073°07'1 0.3 1016.9 28.1
2014-Sep-12 22:00N 34°25' W 073°06'0 0.0 1016.8 28.2
2014-Sep-12 21:00N 34°25' W 073°06'3 1.5 1016.6 28.3
2014-Sep-12 19:00N 34°24' W 073°03'0 0.0 1017.0 28.3
2014-Sep-12 18:00N 34°24' W 073°03'0 0.0 1017.7 28.2
2014-Sep-12 17:00N 34°24' W 073°03'1 0.6 1017.9 28.2
2014-Sep-12 15:00N 34°23' W 073°01'0 0.5 1017.7 28.1
2014-Sep-12 14:00N 34°23' W 073°01'1 0.4 1017.8 27.9
2014-Sep-12 11:00N 34°22' W 073°00'0 0.2 1017.0 27.9
2014-Sep-12 10:00N 34°22' W 073°00'1 1.4 1016.6 27.9
2014-Sep-12 09:00N 34°21' W 073°00'0 0.0 1016.3 27.9
2014-Sep-12 08:00N 34°21' W 073°00'2 1.6 1016.3 27.9
2014-Sep-12 07:00N 34°19' W 072°59'5 4.9 1016.3 27.9
2014-Sep-12 06:00N 34°15' W 072°56'5 4.9 1016.4 27.9
2014-Sep-12 05:00N 34°19' W 072°59'5 2.5 1016.7 27.9
2014-Sep-12 03:00N 34°15' W 072°56'0 0.0 1017.0 28.0
2014-Sep-12 02:00N 34°15' W 072°56'2 2.1 1016.8 28.1
2014-Sep-12 01:00N 34°13' W 072°55'0 0.4 1016.5 28.1
2014-Sep-12 00:00N 34°14' W 072°55'4 1.8 1016.1 28.2
2014-Sep-11 22:00N 34°12' W 072°51'1 0.5 1015.9 28.4
2014-Sep-11 21:00N 34°12' W 072°50'1 0.6 1015.8 28.5
2014-Sep-11 19:00N 34°11' W 072°49'1 0.4 1016.3 28.5
2014-Sep-11 17:00N 34°11' W 072°48'2 0.8 1017.0 28.2
2014-Sep-11 15:00N 34°09' W 072°47'3 0.7 1017.8 28.0
2014-Sep-11 11:00N 34°07' W 072°46'2 1.7 1017.3 27.8
2014-Sep-11 10:00N 34°05' W 072°45'1 1.3 1017.0 27.8
2014-Sep-11 09:00N 34°04' W 072°45'1 0.8 1016.7 27.8
2014-Sep-11 08:00N 34°03' W 072°44'2 1.1 1016.5 27.8
2014-Sep-11 06:00N 34°01' W 072°43'5 1.3 1016.6 27.8
2014-Sep-11 02:00N 33°57' W 072°40'1 1.5 1017.1 27.9
2014-Sep-11 01:00N 33°56' W 072°38'2 1.6 1017.1 27.9
2014-Sep-11 00:00N 33°55' W 072°37'0 0.0 1016.6 27.9
2014-Sep-10 23:00N 33°55' W 072°37'1 1.3 1016.2 27.9
2014-Sep-10 22:00N 33°54' W 072°36'0 0.5 1016.2 27.9
2014-Sep-10 21:00N 33°54' W 072°36'1 1.1 1016.1 27.9
2014-Sep-10 20:00N 33°53' W 072°35'1 0.7 1016.2 28.0
2014-Sep-10 19:00N 33°53' W 072°34'1 0.5 1016.5 28.0
2014-Sep-10 17:00N 33°52' W 072°33'2 0.8 1017.2 27.9
2014-Sep-10 15:00N 33°51' W 072°34'0 0.0 1017.7 27.9
2014-Sep-10 14:00N 33°51' W 072°34'6 1.4 1017.1 27.9
2014-Sep-10 10:00N 33°45' W 072°31'2 1.5 1016.0 29.3
2014-Sep-10 09:00N 33°44' W 072°31'3 2.6 1016.0 28.0
2014-Sep-10 08:00N 33°42' W 072°29'4 1.8 1015.7 28.0
2014-Sep-10 06:00N 33°39' W 072°26'0 0.0 1016.5 28.0
2014-Sep-10 03:00N 33°39' W 072°26'1 0.6 1017.7 28.1
2014-Sep-10 02:00N 33°39' W 072°26'0 0.0 1017.9 28.1
2014-Sep-10 01:00N 33°39' W 072°26'1 0.5 1017.6 28.1
2014-Sep-10 00:00N 33°39' W 072°26'3 0.9 1017.2 28.2
2014-Sep-09 21:00N 33°36' W 072°26'2 2.4 1018.2 28.3
2014-Sep-09 20:00N 33°33' W 072°27'0 0.0 1018.5 28.3
2014-Sep-09 19:00N 33°33' W 072°27'0 0.0 1018.8 28.3
2014-Sep-09 18:00N 33°33' W 072°27'4 1.2 1019.3 28.3
2014-Sep-09 15:00N 33°30' W 072°25'3 3.3 1020.1 28.1
2014-Sep-09 14:00N 33°27' W 072°24'0 0.0 1020.3 28.0
2014-Sep-09 11:00N 33°27' W 072°24'2 2.1 1019.9 28.0
2014-Sep-09 10:00N 33°25' W 072°23'0 0.5 1019.6 28.0
2014-Sep-09 09:00N 33°25' W 072°23'2 1.5 1019.5 28.1
2014-Sep-09 08:00N 33°24' W 072°22'2 1.0 1019.3 28.1
2014-Sep-09 06:00N 33°22' W 072°20'1 0.2 1020.1 28.1
2014-Sep-09 02:00N 33°22' W 072°21'1 0.7 1020.2 28.2
2014-Sep-09 01:00N 33°22' W 072°21'1 1.0 1020.1 28.3
2014-Sep-09 00:00N 33°22' W 072°21'2 1.1 1019.6 28.3
2014-Sep-08 22:00N 33°20' W 072°21'1 0.7 1019.7 28.4
2014-Sep-08 20:00N 33°19' W 072°22'2 1.1 1020.0 28.4
2014-Sep-08 18:00N 33°17' W 072°22'   1020.9 28.4

Dump ship's entire track history